createdAt,value
2017-04-29T00:00:02.790Z,4.70
2017-04-29T00:02:32.247Z,4.80
2017-04-29T00:05:01.765Z,4.80
2017-04-29T00:07:31.223Z,4.80
2017-04-29T00:10:00.692Z,4.90
2017-04-29T00:12:29.836Z,4.80
2017-04-29T00:14:59.308Z,4.90
2017-04-29T00:17:29.510Z,4.80
2017-04-29T00:19:58.976Z,4.90
2017-04-29T00:22:29.151Z,5.00
2017-04-29T00:24:58.672Z,5.10
2017-04-29T00:27:28.175Z,4.90
2017-04-29T00:29:57.679Z,4.90
2017-04-29T00:32:27.303Z,4.90
2017-04-29T00:34:56.796Z,4.80
2017-04-29T00:37:26.287Z,4.80
2017-04-29T00:39:55.473Z,4.70
2017-04-29T00:42:24.955Z,4.80
2017-04-29T00:44:55.180Z,4.70
2017-04-29T00:47:25.429Z,4.80
2017-04-29T00:49:54.917Z,4.80
2017-04-29T00:52:25.263Z,4.70
2017-04-29T00:54:54.737Z,4.80
2017-04-29T00:57:24.941Z,4.70
2017-04-29T00:59:54.432Z,4.70
2017-04-29T01:02:23.911Z,4.80
2017-04-29T01:04:53.405Z,4.70
2017-04-29T01:07:22.881Z,4.70
2017-04-29T01:09:53.120Z,4.60
2017-04-29T01:12:22.604Z,4.60
2017-04-29T01:14:52.252Z,4.70
2017-04-29T01:17:21.745Z,4.60
2017-04-29T01:19:51.964Z,4.60
2017-04-29T01:22:22.200Z,4.60
2017-04-29T01:24:51.671Z,4.70
2017-04-29T01:27:21.151Z,4.70
2017-04-29T01:29:50.746Z,4.70
2017-04-29T01:32:20.245Z,4.60
2017-04-29T01:34:49.908Z,4.60
2017-04-29T01:37:19.383Z,4.60
2017-04-29T01:39:48.867Z,4.60
2017-04-29T01:42:18.351Z,4.70
2017-04-29T01:44:47.496Z,4.60
2017-04-29T01:47:16.621Z,4.70
2017-04-29T01:49:46.273Z,4.70
2017-04-29T01:52:15.747Z,4.70
2017-04-29T01:54:45.224Z,4.70
2017-04-29T01:57:14.376Z,4.70
2017-04-29T01:59:43.975Z,4.70
2017-04-29T02:02:13.099Z,4.80
2017-04-29T02:04:42.582Z,4.80
2017-04-29T02:07:12.094Z,4.80
2017-04-29T02:09:41.579Z,4.70
2017-04-29T02:12:11.042Z,4.80
2017-04-29T02:14:40.572Z,4.80
2017-04-29T02:17:10.061Z,4.70
2017-04-29T02:19:39.527Z,4.80
2017-04-29T02:22:09.711Z,4.70
2017-04-29T02:24:39.207Z,4.80
2017-04-29T02:27:08.345Z,4.80
2017-04-29T02:29:37.968Z,4.70
2017-04-29T02:32:08.144Z,4.70
2017-04-29T02:34:37.620Z,4.60
2017-04-29T02:37:06.469Z,4.60
2017-04-29T02:39:35.947Z,4.60
2017-04-29T02:42:05.407Z,4.60
2017-04-29T02:44:34.879Z,4.60
2017-04-29T02:47:04.355Z,4.50
2017-04-29T02:49:33.836Z,4.50
2017-04-29T02:52:02.972Z,4.40
2017-04-29T02:54:32.447Z,4.40
2017-04-29T02:57:01.996Z,4.30
2017-04-29T02:59:31.497Z,4.20
2017-04-29T03:02:00.964Z,4.10
2017-04-29T03:04:30.441Z,4.00
2017-04-29T03:06:59.923Z,3.90
2017-04-29T03:09:29.379Z,3.80
2017-04-29T03:11:58.859Z,3.70
2017-04-29T03:14:28.346Z,3.70
2017-04-29T03:16:57.819Z,3.60
2017-04-29T03:19:27.305Z,3.60
2017-04-29T03:21:56.796Z,3.60
2017-04-29T03:24:26.387Z,3.70
2017-04-29T03:26:55.879Z,3.70
2017-04-29T03:29:25.448Z,3.60
2017-04-29T03:31:54.943Z,3.60
2017-04-29T03:34:24.415Z,3.50
2017-04-29T03:36:53.912Z,3.50
2017-04-29T03:39:23.391Z,3.40
2017-04-29T03:41:52.860Z,3.40
2017-04-29T03:44:22.425Z,3.20
2017-04-29T03:46:52.604Z,3.10
2017-04-29T03:49:22.083Z,3.10
2017-04-29T03:51:51.570Z,3.10
2017-04-29T03:54:21.047Z,3.20
2017-04-29T03:56:50.577Z,3.20
2017-04-29T03:59:20.356Z,3.30
2017-04-29T04:01:49.557Z,3.40
2017-04-29T04:04:18.675Z,3.40
2017-04-29T04:06:47.809Z,3.30
2017-04-29T04:09:16.912Z,3.30
2017-04-29T04:11:46.456Z,3.20
2017-04-29T04:14:16.008Z,3.20
2017-04-29T04:16:45.506Z,3.20
2017-04-29T04:19:14.967Z,3.20
2017-04-29T04:21:44.451Z,3.10
2017-04-29T04:24:13.957Z,3.10
2017-04-29T04:26:43.436Z,3.00
2017-04-29T04:29:12.911Z,3.00
2017-04-29T04:31:42.170Z,2.90
2017-04-29T04:34:11.645Z,2.80
2017-04-29T04:36:41.124Z,2.90
2017-04-29T04:39:10.620Z,3.00
2017-04-29T04:41:40.111Z,3.00
2017-04-29T04:44:09.583Z,3.10
2017-04-29T04:46:39.082Z,3.10
2017-04-29T04:49:08.562Z,3.10
2017-04-29T04:51:38.048Z,3.10
2017-04-29T04:54:07.181Z,3.10
2017-04-29T04:56:36.682Z,3.10
2017-04-29T04:59:06.162Z,3.00
2017-04-29T05:01:35.745Z,3.10
2017-04-29T05:04:05.238Z,3.10
2017-04-29T05:06:34.716Z,3.10
2017-04-29T05:09:03.504Z,3.10
2017-04-29T05:11:33.650Z,3.20
2017-04-29T05:14:03.139Z,3.20
2017-04-29T05:16:32.615Z,3.30
2017-04-29T05:19:02.111Z,3.30
2017-04-29T05:21:31.579Z,3.30
2017-04-29T05:24:01.754Z,3.40
2017-04-29T05:26:31.060Z,3.40
2017-04-29T05:29:00.542Z,3.60
2017-04-29T05:31:30.047Z,3.60
2017-04-29T05:33:59.556Z,3.70
2017-04-29T05:36:29.016Z,3.80
2017-04-29T05:38:58.513Z,3.80
2017-04-29T05:41:27.997Z,3.80
2017-04-29T05:43:57.491Z,4.00
2017-04-29T05:46:26.962Z,4.00
2017-04-29T05:48:56.440Z,4.60
2017-04-29T05:51:26.056Z,4.30
2017-04-29T05:53:55.535Z,4.40
2017-04-29T05:56:25.784Z,4.50
2017-04-29T05:58:55.278Z,4.60
2017-04-29T06:01:24.763Z,4.70
2017-04-29T06:03:53.880Z,4.80
2017-04-29T06:06:23.387Z,5.00
2017-04-29T06:08:52.879Z,5.10
2017-04-29T06:11:22.388Z,5.20
2017-04-29T06:13:51.920Z,5.30
2017-04-29T06:16:21.442Z,5.40
2017-04-29T06:18:50.917Z,5.50
2017-04-29T06:21:21.088Z,5.60
2017-04-29T06:23:50.581Z,5.80
2017-04-29T06:26:20.096Z,5.80
2017-04-29T06:28:49.573Z,6.00
2017-04-29T06:31:19.020Z,6.00
2017-04-29T06:33:48.231Z,6.20
2017-04-29T06:36:17.439Z,6.10
2017-04-29T06:38:46.663Z,6.40
2017-04-29T06:41:16.135Z,6.40
2017-04-29T06:43:45.352Z,6.50
2017-04-29T06:46:14.548Z,6.70
2017-04-29T06:48:43.771Z,6.80
2017-04-29T06:51:12.637Z,6.80
2017-04-29T06:53:41.542Z,7.00
2017-04-29T06:56:11.104Z,7.00
2017-04-29T06:58:40.324Z,7.20
2017-04-29T07:01:09.515Z,7.20
2017-04-29T07:03:38.736Z,7.40
2017-04-29T07:06:07.926Z,7.70
2017-04-29T07:08:37.130Z,8.00
2017-04-29T07:11:06.381Z,8.00
2017-04-29T07:13:35.579Z,8.00
2017-04-29T07:16:04.779Z,7.80
2017-04-29T07:18:33.992Z,7.70
2017-04-29T07:21:03.231Z,7.60
2017-04-29T07:23:32.449Z,7.50
2017-04-29T07:26:01.617Z,7.70
2017-04-29T07:28:30.804Z,8.00
2017-04-29T07:31:00.047Z,8.10
2017-04-29T07:33:29.339Z,8.40
2017-04-29T07:35:58.549Z,8.80
2017-04-29T07:38:27.795Z,8.90
2017-04-29T07:40:56.977Z,9.20
2017-04-29T07:43:26.169Z,9.40
2017-04-29T07:45:55.382Z,9.60
2017-04-29T07:48:24.752Z,9.70
2017-04-29T07:50:53.624Z,9.70
2017-04-29T07:53:22.807Z,9.50
2017-04-29T07:55:52.006Z,9.70
2017-04-29T07:58:21.251Z,10.00
2017-04-29T08:00:50.120Z,10.00
2017-04-29T08:03:18.968Z,10.00
2017-04-29T08:05:48.180Z,9.80
2017-04-29T08:08:17.393Z,9.70
2017-04-29T08:10:46.647Z,9.70
2017-04-29T08:13:15.910Z,9.90
2017-04-29T08:15:45.125Z,10.00
2017-04-29T08:18:14.331Z,9.90
2017-04-29T08:20:43.539Z,9.80
2017-04-29T08:23:12.396Z,9.70
2017-04-29T08:25:41.274Z,9.70
2017-04-29T08:28:10.509Z,9.60
2017-04-29T08:30:39.679Z,9.70
2017-04-29T08:33:08.901Z,10.00
2017-04-29T08:35:38.087Z,10.10
2017-04-29T08:38:07.352Z,10.20
2017-04-29T08:40:37.252Z,10.40
2017-04-29T08:43:06.531Z,10.50
2017-04-29T08:45:35.775Z,10.50
2017-04-29T08:48:05.047Z,10.40
2017-04-29T08:50:34.300Z,10.20
2017-04-29T08:53:03.506Z,10.50
2017-04-29T08:55:32.752Z,10.90
2017-04-29T08:58:01.965Z,11.00
2017-04-29T09:00:31.167Z,11.20
2017-04-29T09:03:00.380Z,11.50
2017-04-29T09:05:29.584Z,11.90
2017-04-29T09:07:58.775Z,11.90
2017-04-29T09:10:27.979Z,12.30
2017-04-29T09:12:57.190Z,12.70
2017-04-29T09:15:26.507Z,12.80
2017-04-29T09:17:55.711Z,12.60
2017-04-29T09:20:24.926Z,12.60
2017-04-29T09:22:54.155Z,12.90
2017-04-29T09:25:22.995Z,13.30
2017-04-29T09:27:52.322Z,13.70
2017-04-29T09:30:21.531Z,13.50
2017-04-29T09:32:50.792Z,13.30
2017-04-29T09:35:20.003Z,12.90
2017-04-29T09:37:49.210Z,12.30
2017-04-29T09:40:18.456Z,11.80
2017-04-29T09:42:47.681Z,11.50
2017-04-29T09:45:16.536Z,11.40
2017-04-29T09:47:45.728Z,11.30
2017-04-29T09:50:14.941Z,11.20
2017-04-29T09:52:44.140Z,11.00
2017-04-29T09:55:13.364Z,11.00
2017-04-29T09:57:42.567Z,11.00
2017-04-29T10:00:11.948Z,10.90
2017-04-29T10:02:41.883Z,11.10
2017-04-29T10:05:11.121Z,11.30
2017-04-29T10:07:40.365Z,11.60
2017-04-29T10:10:10.328Z,11.60
2017-04-29T10:12:39.583Z,11.60
2017-04-29T10:15:08.791Z,11.30
2017-04-29T10:17:38.002Z,11.60
2017-04-29T10:20:07.883Z,11.70
2017-04-29T10:22:37.100Z,11.70
2017-04-29T10:25:06.356Z,11.70
2017-04-29T10:27:35.575Z,11.70
2017-04-29T10:30:04.783Z,11.60
2017-04-29T10:32:34.036Z,11.70
2017-04-29T10:35:03.243Z,12.00
2017-04-29T10:37:32.489Z,12.40
2017-04-29T10:40:02.045Z,12.30
2017-04-29T10:42:31.239Z,12.00
2017-04-29T10:45:00.449Z,12.00
2017-04-29T10:47:29.685Z,12.50
2017-04-29T10:49:58.880Z,12.80
2017-04-29T10:52:28.095Z,13.00
2017-04-29T10:54:57.288Z,13.40
2017-04-29T10:57:26.499Z,13.40
2017-04-29T10:59:55.712Z,13.20
2017-04-29T11:02:24.901Z,13.20
2017-04-29T11:04:54.122Z,13.00
2017-04-29T11:07:23.406Z,12.90
2017-04-29T11:09:52.597Z,12.90
2017-04-29T11:12:21.836Z,13.00
2017-04-29T11:14:51.059Z,12.80
2017-04-29T11:17:20.271Z,12.80
2017-04-29T11:19:49.465Z,12.90
2017-04-29T11:22:18.693Z,12.80
2017-04-29T11:24:47.896Z,12.80
2017-04-29T11:27:17.119Z,13.00
2017-04-29T11:29:46.372Z,12.90
2017-04-29T11:32:15.616Z,13.10
2017-04-29T11:34:44.832Z,13.30
2017-04-29T11:37:14.013Z,13.10
2017-04-29T11:39:43.253Z,12.90
2017-04-29T11:42:12.559Z,12.80
2017-04-29T11:44:41.836Z,12.80
2017-04-29T11:47:11.045Z,12.50
2017-04-29T11:49:40.239Z,12.40
2017-04-29T11:52:09.457Z,12.40
2017-04-29T11:54:38.663Z,12.10
2017-04-29T11:57:07.903Z,12.10
2017-04-29T11:59:37.116Z,12.10
2017-04-29T12:02:06.304Z,12.10
2017-04-29T12:04:35.505Z,12.10
2017-04-29T12:07:04.727Z,12.10
2017-04-29T12:09:33.918Z,12.10
2017-04-29T12:12:03.157Z,12.00
2017-04-29T12:14:32.348Z,12.30
2017-04-29T12:17:01.564Z,12.50
2017-04-29T12:19:30.764Z,12.60
2017-04-29T12:22:00.036Z,12.90
2017-04-29T12:24:29.251Z,13.30
2017-04-29T12:26:58.456Z,13.10
2017-04-29T12:29:27.670Z,13.20
2017-04-29T12:31:56.889Z,13.50
2017-04-29T12:34:26.097Z,13.50
2017-04-29T12:36:55.291Z,13.40
2017-04-29T12:39:24.510Z,13.30
2017-04-29T12:41:53.716Z,13.10
2017-04-29T12:44:23.019Z,13.00
2017-04-29T12:46:52.248Z,13.00
2017-04-29T12:49:21.494Z,13.20
2017-04-29T12:51:50.718Z,13.00
2017-04-29T12:54:19.921Z,13.00
2017-04-29T12:56:49.159Z,12.90
2017-04-29T12:59:18.377Z,13.20
2017-04-29T13:01:47.623Z,13.90
2017-04-29T13:04:16.864Z,14.50
2017-04-29T13:06:46.064Z,15.10
2017-04-29T13:09:15.255Z,15.80
2017-04-29T13:11:44.471Z,16.20
2017-04-29T13:14:13.668Z,15.40
2017-04-29T13:16:42.881Z,15.30
2017-04-29T13:19:12.074Z,14.40
2017-04-29T13:21:41.272Z,14.10
2017-04-29T13:24:10.496Z,13.60
2017-04-29T13:26:39.695Z,13.70
2017-04-29T13:29:08.939Z,13.80
2017-04-29T13:31:38.169Z,13.90
2017-04-29T13:34:07.355Z,15.00
2017-04-29T13:36:36.548Z,13.90
2017-04-29T13:39:05.771Z,14.10
2017-04-29T13:41:34.965Z,14.00
2017-04-29T13:44:04.167Z,13.90
2017-04-29T13:46:33.372Z,13.70
2017-04-29T13:49:02.620Z,13.50
2017-04-29T13:51:31.830Z,13.70
2017-04-29T13:54:01.086Z,13.50
2017-04-29T13:56:30.279Z,13.40
2017-04-29T13:58:59.492Z,13.10
2017-04-29T14:01:28.714Z,13.40
2017-04-29T14:03:57.892Z,13.40
2017-04-29T14:06:27.107Z,13.30
2017-04-29T14:08:56.443Z,13.40
2017-04-29T14:11:25.642Z,13.60
2017-04-29T14:13:54.905Z,13.90
2017-04-29T14:16:24.121Z,14.00
2017-04-29T14:18:53.420Z,14.20
2017-04-29T14:21:22.604Z,14.60
2017-04-29T14:23:51.820Z,14.90
2017-04-29T14:26:21.047Z,14.80
2017-04-29T14:28:50.311Z,14.80
2017-04-29T14:31:19.535Z,14.90
2017-04-29T14:33:48.733Z,15.00
2017-04-29T14:36:17.955Z,14.70
2017-04-29T14:38:47.849Z,14.40
2017-04-29T14:41:17.076Z,14.40
2017-04-29T14:43:46.279Z,14.30
2017-04-29T14:46:15.580Z,14.50
2017-04-29T14:48:44.801Z,14.50
2017-04-29T14:51:14.703Z,14.40
2017-04-29T14:53:43.911Z,14.60
2017-04-29T14:56:13.117Z,14.60
2017-04-29T14:58:42.336Z,14.70
2017-04-29T15:01:11.537Z,14.70
2017-04-29T15:03:40.739Z,14.80
2017-04-29T15:06:09.956Z,14.70
2017-04-29T15:08:39.165Z,14.20
2017-04-29T15:11:08.386Z,14.10
2017-04-29T15:13:37.579Z,14.30
2017-04-29T15:16:06.776Z,14.30
2017-04-29T15:18:35.988Z,14.20
2017-04-29T15:21:05.194Z,14.60
2017-04-29T15:23:34.410Z,14.70
2017-04-29T15:26:03.622Z,15.30
2017-04-29T15:28:32.834Z,16.40
2017-04-29T15:31:02.024Z,16.90
2017-04-29T15:33:31.240Z,17.30
2017-04-29T15:36:00.428Z,16.10
2017-04-29T15:38:29.639Z,16.60
2017-04-29T15:40:58.836Z,16.90
2017-04-29T15:43:28.048Z,17.10
2017-04-29T15:45:57.225Z,17.50
2017-04-29T15:48:26.440Z,18.10
2017-04-29T15:50:55.680Z,18.20
2017-04-29T15:53:24.905Z,18.40
2017-04-29T15:55:55.062Z,19.10
2017-04-29T15:58:24.306Z,19.60
2017-04-29T16:00:53.498Z,19.60
2017-04-29T16:03:22.701Z,19.70
2017-04-29T16:05:52.582Z,19.70
2017-04-29T16:08:21.802Z,19.70
2017-04-29T16:10:50.995Z,19.50
2017-04-29T16:13:20.218Z,19.60
2017-04-29T16:15:49.443Z,19.20
2017-04-29T16:18:19.618Z,18.90
2017-04-29T16:20:49.496Z,18.50
2017-04-29T16:23:18.739Z,17.90
2017-04-29T16:25:47.955Z,17.80
2017-04-29T16:28:17.202Z,17.50
2017-04-29T16:30:46.396Z,17.20
2017-04-29T16:33:15.599Z,16.70
2017-04-29T16:35:44.824Z,16.10
2017-04-29T16:38:14.016Z,15.70
2017-04-29T16:40:43.215Z,16.30
2017-04-29T16:43:12.417Z,16.20
2017-04-29T16:45:41.615Z,16.30
2017-04-29T16:48:10.847Z,16.60
2017-04-29T16:50:40.085Z,15.80
2017-04-29T16:53:09.288Z,14.70
2017-04-29T16:55:38.483Z,14.00
2017-04-29T16:58:07.344Z,13.70
2017-04-29T17:00:36.643Z,13.40
2017-04-29T17:03:05.827Z,13.30
2017-04-29T17:05:35.079Z,13.20
2017-04-29T17:08:04.285Z,13.20
2017-04-29T17:10:33.475Z,13.10
2017-04-29T17:13:02.712Z,12.90
2017-04-29T17:15:31.898Z,12.80
2017-04-29T17:18:01.816Z,12.60
2017-04-29T17:20:30.998Z,12.60
2017-04-29T17:23:00.197Z,12.30
2017-04-29T17:25:29.419Z,12.20
2017-04-29T17:27:58.619Z,12.00
2017-04-29T17:30:27.805Z,12.00
2017-04-29T17:32:58.928Z,12.00
2017-04-29T17:35:28.823Z,12.00
2017-04-29T17:37:58.033Z,12.10
2017-04-29T17:40:27.252Z,12.00
2017-04-29T17:42:56.515Z,12.00
2017-04-29T17:45:25.739Z,12.00
2017-04-29T17:47:54.743Z,11.80
2017-04-29T17:50:23.961Z,11.70
2017-04-29T17:52:53.279Z,11.60
2017-04-29T17:55:22.484Z,11.40
2017-04-29T17:57:51.867Z,11.30
2017-04-29T18:00:21.052Z,11.20
2017-04-29T18:02:50.262Z,11.20
2017-04-29T18:05:19.443Z,11.10
2017-04-29T18:07:48.710Z,11.00
2017-04-29T18:10:18.614Z,11.00
2017-04-29T18:12:47.829Z,10.90
2017-04-29T18:15:17.043Z,10.80
2017-04-29T18:17:46.240Z,10.70
2017-04-29T18:20:15.446Z,10.60
2017-04-29T18:22:44.661Z,10.50
2017-04-29T18:25:13.872Z,10.30
2017-04-29T18:27:43.074Z,10.20
2017-04-29T18:30:12.308Z,10.10
2017-04-29T18:32:41.635Z,10.00
2017-04-29T18:35:10.980Z,9.90
2017-04-29T18:37:40.188Z,9.80
2017-04-29T18:40:09.480Z,9.70
2017-04-29T18:42:38.689Z,9.70
2017-04-29T18:45:07.878Z,9.60
2017-04-29T18:47:37.140Z,9.40
2017-04-29T18:50:06.674Z,9.40
2017-04-29T18:52:35.910Z,9.30
2017-04-29T18:55:05.808Z,9.20
2017-04-29T18:57:35.029Z,9.00
2017-04-29T19:00:04.258Z,8.90
2017-04-29T19:02:33.453Z,8.90
2017-04-29T19:05:02.688Z,7.90
2017-04-29T19:07:31.951Z,8.70
2017-04-29T19:10:01.163Z,8.60
2017-04-29T19:12:30.387Z,8.50
2017-04-29T19:14:59.580Z,8.50
2017-04-29T19:17:28.787Z,8.40
2017-04-29T19:19:57.972Z,8.30
2017-04-29T19:22:27.201Z,8.30
2017-04-29T19:24:56.414Z,8.20
2017-04-29T19:27:25.755Z,8.10
2017-04-29T19:29:54.982Z,8.00
2017-04-29T19:32:24.172Z,7.90
2017-04-29T19:34:53.444Z,7.80
2017-04-29T19:37:22.661Z,7.70
2017-04-29T19:39:51.870Z,7.60
2017-04-29T19:42:21.066Z,7.50
2017-04-29T19:44:51.283Z,7.40
2017-04-29T19:47:20.529Z,7.20
2017-04-29T19:49:49.730Z,7.20
2017-04-29T19:52:19.006Z,7.20
2017-04-29T19:54:48.335Z,7.10
2017-04-29T19:57:17.532Z,7.00
2017-04-29T19:59:46.737Z,6.90
2017-04-29T20:02:15.954Z,6.90
2017-04-29T20:04:45.164Z,6.80
2017-04-29T20:07:15.112Z,6.60
2017-04-29T20:09:44.328Z,6.60
2017-04-29T20:12:13.586Z,6.60
2017-04-29T20:14:43.539Z,6.50
2017-04-29T20:17:12.775Z,6.50
2017-04-29T20:19:42.020Z,6.30
2017-04-29T20:22:11.976Z,6.10
2017-04-29T20:24:41.163Z,6.00
2017-04-29T20:27:10.474Z,6.00
2017-04-29T20:29:39.683Z,5.80
2017-04-29T20:32:08.865Z,5.60
2017-04-29T20:34:38.065Z,5.60
2017-04-29T20:37:06.929Z,5.70
2017-04-29T20:39:37.091Z,5.80
2017-04-29T20:42:06.285Z,5.80
2017-04-29T20:44:36.191Z,5.70
2017-04-29T20:47:05.406Z,5.70
2017-04-29T20:49:34.871Z,5.80
2017-04-29T20:52:07.246Z,5.70
2017-04-29T20:54:36.712Z,5.60
2017-04-29T20:57:06.188Z,5.50
2017-04-29T20:59:35.307Z,5.50
2017-04-29T21:02:04.807Z,5.40
2017-04-29T21:04:34.293Z,5.30
2017-04-29T21:07:03.757Z,5.10
2017-04-29T21:09:33.214Z,5.10
2017-04-29T21:12:02.703Z,5.20
2017-04-29T21:14:32.211Z,5.20
2017-04-29T21:17:01.715Z,5.20
2017-04-29T21:19:31.176Z,5.20
2017-04-29T21:22:01.339Z,5.10
2017-04-29T21:24:30.834Z,5.00
2017-04-29T21:27:00.291Z,5.00
2017-04-29T21:29:29.873Z,5.00
2017-04-29T21:31:59.394Z,4.90
2017-04-29T21:34:28.852Z,4.90
2017-04-29T21:36:58.299Z,4.90
2017-04-29T21:39:27.801Z,5.00
2017-04-29T21:41:57.284Z,4.90
2017-04-29T21:44:26.767Z,4.90
2017-04-29T21:46:56.250Z,4.90
2017-04-29T21:49:25.743Z,4.70
2017-04-29T21:51:55.191Z,4.70
2017-04-29T21:54:24.686Z,4.60
2017-04-29T21:56:54.146Z,4.60
2017-04-29T21:59:23.618Z,4.60
2017-04-29T22:01:53.141Z,4.60
2017-04-29T22:04:22.256Z,4.50
2017-04-29T22:06:51.731Z,4.40
2017-04-29T22:09:21.323Z,4.40
2017-04-29T22:11:51.572Z,4.30
2017-04-29T22:14:21.042Z,4.20
2017-04-29T22:16:50.510Z,4.20
2017-04-29T22:19:19.998Z,4.20
2017-04-29T22:21:50.149Z,4.10
2017-04-29T22:24:19.651Z,4.10
2017-04-29T22:26:49.119Z,4.10
2017-04-29T22:29:19.356Z,3.90
2017-04-29T22:31:49.585Z,4.00
2017-04-29T22:34:19.051Z,4.10
2017-04-29T22:36:48.531Z,4.00
2017-04-29T22:39:18.079Z,3.90
2017-04-29T22:41:47.575Z,3.90
2017-04-29T22:44:17.047Z,3.80
2017-04-29T22:46:46.531Z,3.50
2017-04-29T22:49:16.176Z,3.60
2017-04-29T22:51:44.955Z,3.60
2017-04-29T22:54:14.499Z,3.70
2017-04-29T22:56:43.974Z,3.70
2017-04-29T22:59:13.563Z,3.70
2017-04-29T23:01:43.096Z,3.70
2017-04-29T23:04:12.586Z,3.50
2017-04-29T23:06:42.075Z,3.40
2017-04-29T23:09:11.535Z,3.30
2017-04-29T23:11:41.024Z,3.20
2017-04-29T23:14:10.144Z,3.10
2017-04-29T23:16:39.619Z,3.10
2017-04-29T23:19:09.100Z,3.10
2017-04-29T23:21:38.580Z,3.20
2017-04-29T23:24:08.048Z,3.30
2017-04-29T23:26:38.236Z,3.30
2017-04-29T23:29:07.714Z,3.20
2017-04-29T23:31:37.156Z,3.10
2017-04-29T23:34:06.614Z,3.30
2017-04-29T23:36:36.091Z,3.30
2017-04-29T23:39:04.884Z,3.30
2017-04-29T23:41:35.039Z,3.30
2017-04-29T23:44:04.184Z,3.30
2017-04-29T23:46:33.695Z,3.20
2017-04-29T23:49:03.932Z,3.10
2017-04-29T23:51:33.468Z,2.90
2017-04-29T23:54:03.692Z,2.70
2017-04-29T23:56:33.967Z,2.70
2017-04-29T23:59:03.451Z,2.70
